Time;durP1;ratioP1;P1;durP2;ratioP2;P2;SDS_P1;SDS_P2;PMS_P1;PMS_P2;Temp;Humidity;BMP_temperature;BMP_pressure;BME280_temperature;BME280_humidity;BME280_pressure;Samples;Min_cycle;Max_cycle;Signal;HPM_P1;HPM_P2
2022/03/04 00:01:46;;;;;;;35.80;17.63;;;0.10;78.30;;;;;;5087643;28;20100;-73
2022/03/04 00:04:13;;;;;;;36.67;19.05;;;0.10;78.50;;;;;;5053957;28;20032;-73
2022/03/04 00:06:39;;;;;;;36.17;17.52;;;0.10;78.80;;;;;;5073498;28;20105;-73
2022/03/04 00:09:05;;;;;;;32.33;17.00;;;0.10;78.70;;;;;;5104901;27;20463;-73
2022/03/04 00:11:31;;;;;;;33.43;18.03;;;0.10;78.80;;;;;;5071313;28;20036;-73
2022/03/04 00:13:56;;;;;;;33.92;17.58;;;0.00;78.90;;;;;;5105199;27;20028;-74
2022/03/04 00:16:22;;;;;;;33.80;17.57;;;0.00;78.60;;;;;;5087968;28;20319;-73
2022/03/04 00:19:06;;;;;;;34.20;17.83;;;0.00;79.10;;;;;;5104512;28;20042;-72
2022/03/04 00:21:43;;;;;;;33.22;16.38;;;-0.10;79.40;;;;;;5107068;27;20461;-72
2022/03/04 00:24:09;;;;;;;37.15;16.90;;;-0.20;79.30;;;;;;5107522;27;20047;-73
2022/03/04 00:26:36;;;;;;;34.50;16.98;;;-0.20;79.20;;;;;;5124600;27;20130;-73
2022/03/04 00:29:03;;;;;;;31.75;15.80;;;-0.20;79.00;;;;;;5088402;28;20613;-73
2022/03/04 00:31:28;;;;;;;38.38;17.48;;;-0.30;79.10;;;;;;5068987;28;20121;-72
2022/03/04 00:33:54;;;;;;;31.20;15.43;;;-0.30;79.10;;;;;;5086802;28;20071;-72
2022/03/04 00:36:23;;;;;;;34.13;17.00;;;-0.40;79.10;;;;;;5041869;28;20451;-73
2022/03/04 00:38:55;;;;;;;32.95;15.75;;;-0.40;79.10;;;;;;5071624;28;20473;-73
2022/03/04 00:41:22;;;;;;;38.05;17.48;;;-0.50;79.20;;;;;;5079252;28;20040;-73
2022/03/04 00:43:49;;;;;;;33.78;16.30;;;-0.50;79.60;;;;;;5056471;28;20040;-73
2022/03/04 00:46:15;;;;;;;35.55;16.83;;;-0.50;79.50;;;;;;5087839;28;20119;-73
2022/03/04 00:48:43;;;;;;;31.08;15.93;;;-0.50;79.60;;;;;;5050800;28;20399;-73
2022/03/04 00:51:09;;;;;;;30.83;15.27;;;-0.60;79.50;;;;;;5103731;28;20079;-73
2022/03/04 00:53:36;;;;;;;34.97;16.17;;;-0.60;79.40;;;;;;5086942;28;20032;-73
2022/03/04 00:56:02;;;;;;;30.63;14.75;;;-0.60;79.90;;;;;;5087053;28;20081;-73
2022/03/04 00:58:28;;;;;;;32.42;14.95;;;-0.60;79.60;;;;;;5086471;28;20044;-73
2022/03/04 01:00:54;;;;;;;31.07;15.57;;;-0.60;79.60;;;;;;5085825;28;20108;-73
2022/03/04 01:03:19;;;;;;;29.93;15.20;;;-0.70;79.50;;;;;;5069847;28;20082;-73
2022/03/04 01:05:45;;;;;;;30.93;15.80;;;-0.70;79.90;;;;;;5102899;28;20082;-72
2022/03/04 01:08:11;;;;;;;33.13;16.20;;;-0.70;79.60;;;;;;5072954;28;20298;-72
2022/03/04 01:10:37;;;;;;;30.63;14.90;;;-0.80;79.60;;;;;;5103211;28;20556;-72
2022/03/04 01:13:04;;;;;;;33.22;15.75;;;-0.90;79.70;;;;;;5086903;28;20070;-73
2022/03/04 01:15:30;;;;;;;29.45;14.98;;;-0.90;79.60;;;;;;5103491;28;20383;-73
2022/03/04 01:17:56;;;;;;;32.67;15.38;;;-1.00;79.70;;;;;;5104225;28;20062;-73
2022/03/04 01:20:22;;;;;;;26.83;14.43;;;-1.00;79.70;;;;;;5086252;28;20043;-73
2022/03/04 01:22:48;;;;;;;30.52;15.63;;;-1.00;79.60;;;;;;5069766;28;20488;-73
2022/03/04 01:25:14;;;;;;;29.10;14.55;;;-1.10;79.70;;;;;;5101541;28;20070;-72
2022/03/04 01:27:40;;;;;;;27.92;14.07;;;-1.10;79.70;;;;;;5077529;28;20041;-72
2022/03/04 01:30:08;;;;;;;29.03;14.27;;;-1.10;79.70;;;;;;5118709;27;20337;-72
2022/03/04 01:32:34;;;;;;;30.42;14.80;;;-1.10;79.80;;;;;;5102110;28;20304;-72
2022/03/04 01:35:00;;;;;;;28.98;13.52;;;-1.10;80.10;;;;;;5085802;28;20072;-73
2022/03/04 01:37:25;;;;;;;27.07;14.40;;;-1.20;79.90;;;;;;5052567;28;20078;-73
2022/03/04 01:39:51;;;;;;;29.30;14.43;;;-1.20;80.00;;;;;;5068402;28;20702;-72
2022/03/04 01:42:17;;;;;;;29.88;13.57;;;-1.20;80.00;;;;;;5066415;28;20221;-72
2022/03/04 01:44:43;;;;;;;27.80;13.70;;;-1.30;80.20;;;;;;5067895;28;20043;-73
2022/03/04 01:47:09;;;;;;;29.80;14.27;;;-1.20;80.20;;;;;;5120310;27;20059;-73
2022/03/04 01:49:35;;;;;;;31.55;14.90;;;-1.20;80.30;;;;;;5084647;28;20032;-72
2022/03/04 01:52:02;;;;;;;24.77;12.73;;;-1.20;80.20;;;;;;5069053;28;20403;-73
2022/03/04 01:54:27;;;;;;;28.27;13.48;;;-1.30;80.00;;;;;;5067847;28;20032;-72
2022/03/04 01:56:53;;;;;;;26.73;13.87;;;-1.30;80.10;;;;;;5067529;28;20172;-72
2022/03/04 01:59:19;;;;;;;26.38;13.40;;;-1.30;80.10;;;;;;5101859;28;20092;-72
2022/03/04 02:01:45;;;;;;;33.13;14.10;;;-1.30;80.10;;;;;;5116895;27;20044;-73
2022/03/04 02:04:11;;;;;;;24.93;12.40;;;-1.30;80.10;;;;;;5068287;28;20044;-73
2022/03/04 02:06:37;;;;;;;27.42;13.20;;;-1.30;80.10;;;;;;5068782;28;20115;-73
2022/03/04 02:09:03;;;;;;;25.33;12.65;;;-1.30;80.10;;;;;;5068387;28;20042;-73
2022/03/04 02:11:29;;;;;;;27.27;13.23;;;-1.30;80.10;;;;;;5084992;28;20035;-73
2022/03/04 02:13:55;;;;;;;27.93;12.57;;;-1.30;80.00;;;;;;5100953;28;20047;-74
2022/03/04 02:16:38;;;;;;;24.87;12.80;;;-1.30;80.20;;;;;;5065265;28;20048;-74
2022/03/04 02:19:04;;;;;;;25.48;13.20;;;-1.40;80.20;;;;;;5073470;28;20040;-74
2022/03/04 02:21:32;;;;;;;27.87;12.73;;;-1.40;80.50;;;;;;5100118;28;20040;-74
2022/03/04 02:23:58;;;;;;;24.20;12.65;;;-1.40;80.30;;;;;;5084980;28;20485;-74
2022/03/04 02:26:24;;;;;;;25.87;12.77;;;-1.40;80.30;;;;;;5118705;27;20043;-74
2022/03/04 02:28:50;;;;;;;29.17;13.73;;;-1.30;80.30;;;;;;5076144;28;20302;-74
2022/03/04 02:31:18;;;;;;;26.88;13.18;;;-1.30;80.30;;;;;;5086031;28;20096;-74
2022/03/04 02:33:45;;;;;;;27.45;13.23;;;-1.40;80.20;;;;;;5084948;28;20397;-74
2022/03/04 02:36:11;;;;;;;29.42;13.80;;;-1.40;80.40;;;;;;5084797;28;20048;-74
2022/03/04 02:38:37;;;;;;;29.00;12.55;;;-1.40;80.50;;;;;;5102228;28;20032;-74
2022/03/04 02:41:04;;;;;;;27.10;13.10;;;-1.40;80.60;;;;;;5068690;28;20048;-74
2022/03/04 02:43:30;;;;;;;30.95;13.50;;;-1.40;80.40;;;;;;5102360;28;20044;-74
2022/03/04 02:45:56;;;;;;;26.60;12.77;;;-1.40;80.40;;;;;;5100833;28;20458;-74
2022/03/04 02:48:21;;;;;;;29.77;14.60;;;-1.40;80.40;;;;;;5068343;28;20126;-74
2022/03/04 02:50:47;;;;;;;26.47;13.30;;;-1.40;80.60;;;;;;5100475;28;20136;-74
2022/03/04 02:53:13;;;;;;;27.45;13.52;;;-1.40;80.50;;;;;;5068112;28;20115;-74
2022/03/04 02:55:39;;;;;;;25.33;12.80;;;-1.30;80.60;;;;;;5101310;28;20445;-74
2022/03/04 02:58:05;;;;;;;26.98;12.88;;;-1.40;80.50;;;;;;5062394;28;20040;-74
2022/03/04 03:00:31;;;;;;;27.10;12.20;;;-1.30;80.70;;;;;;5050710;28;20568;-74
2022/03/04 03:02:57;;;;;;;28.15;12.57;;;-1.30;80.70;;;;;;5068668;28;20032;-74
2022/03/04 03:05:23;;;;;;;26.52;13.20;;;-1.30;80.60;;;;;;5101096;28;20047;-74
2022/03/04 03:07:49;;;;;;;30.38;13.07;;;-1.30;80.60;;;;;;5119636;27;20040;-74
2022/03/04 03:10:15;;;;;;;25.83;13.60;;;-1.30;80.60;;;;;;5101676;28;20101;-74
2022/03/04 03:12:42;;;;;;;27.07;13.03;;;-1.30;80.60;;;;;;5085798;28;20080;-74
2022/03/04 03:15:09;;;;;;;27.75;14.27;;;-1.40;80.80;;;;;;5068492;28;20499;-74
2022/03/04 03:17:35;;;;;;;31.27;13.82;;;-1.40;80.90;;;;;;5067947;28;20047;-74
2022/03/04 03:20:02;;;;;;;25.85;13.32;;;-1.40;80.90;;;;;;5084695;28;20044;-74
2022/03/04 03:22:28;;;;;;;27.50;13.32;;;-1.40;80.80;;;;;;5102358;28;20097;-74
2022/03/04 03:24:54;;;;;;;28.27;13.48;;;-1.40;81.10;;;;;;5101832;28;20061;-74
2022/03/04 03:27:20;;;;;;;32.70;15.20;;;-1.50;81.30;;;;;;5050221;28;20100;-74
2022/03/04 03:29:46;;;;;;;31.35;14.98;;;-1.50;81.10;;;;;;5084936;28;20089;-74
2022/03/04 03:32:12;;;;;;;26.93;14.37;;;-1.50;81.30;;;;;;5048009;28;20037;-74
2022/03/04 03:34:39;;;;;;;30.42;13.52;;;-1.50;81.10;;;;;;5067648;28;20028;-74
2022/03/04 03:37:06;;;;;;;31.55;14.55;;;-1.60;81.10;;;;;;5085413;28;20143;-74
2022/03/04 03:39:32;;;;;;;26.67;13.65;;;-1.60;81.00;;;;;;5068456;28;20044;-74
2022/03/04 03:41:58;;;;;;;28.97;13.50;;;-1.70;81.20;;;;;;5069252;28;20562;-74
2022/03/04 03:44:24;;;;;;;28.20;14.07;;;-1.70;81.30;;;;;;5085965;28;20055;-74
2022/03/04 03:46:49;;;;;;;27.37;12.93;;;-1.80;81.60;;;;;;5088154;28;20048;-74
2022/03/04 03:49:15;;;;;;;32.07;14.33;;;-1.80;81.40;;;;;;5103141;28;20043;-74
2022/03/04 03:51:41;;;;;;;31.67;13.97;;;-1.80;81.50;;;;;;5088739;28;20035;-74
2022/03/04 03:54:07;;;;;;;30.07;15.20;;;-1.90;81.60;;;;;;5078653;28;20051;-74
2022/03/04 03:56:32;;;;;;;31.10;14.23;;;-1.80;81.60;;;;;;5065045;28;20044;-74
2022/03/04 03:58:58;;;;;;;32.87;14.63;;;-1.90;81.60;;;;;;5095587;27;20085;-74
2022/03/04 04:01:24;;;;;;;27.70;13.20;;;-1.90;81.50;;;;;;5093620;28;20043;-74
2022/03/04 04:03:50;;;;;;;32.27;13.67;;;-1.90;81.40;;;;;;5082261;28;20088;-74
2022/03/04 04:06:16;;;;;;;29.37;14.10;;;-1.90;81.50;;;;;;5077532;27;20048;-74
2022/03/04 04:08:42;;;;;;;33.22;15.55;;;-2.00;81.40;;;;;;5108215;28;20035;-74
2022/03/04 04:11:07;;;;;;;36.70;15.10;;;-2.00;81.50;;;;;;5090642;28;20047;-74
2022/03/04 04:13:33;;;;;;;32.70;14.83;;;-2.00;81.60;;;;;;5108204;28;20689;-74
2022/03/04 04:15:59;;;;;;;31.37;13.63;;;-2.10;81.80;;;;;;5075003;28;20040;-74
2022/03/04 04:18:25;;;;;;;32.47;15.23;;;-2.10;81.70;;;;;;5090963;28;20380;-74
2022/03/04 04:20:51;;;;;;;29.75;14.60;;;-2.10;81.70;;;;;;5090447;28;20050;-74
2022/03/04 04:23:17;;;;;;;33.88;14.63;;;-2.10;81.80;;;;;;5106954;28;20054;-74
2022/03/04 04:25:43;;;;;;;35.22;16.13;;;-2.10;81.80;;;;;;5102138;28;20131;-74
2022/03/04 04:28:09;;;;;;;32.73;15.40;;;-2.20;81.80;;;;;;5073860;27;20118;-74
2022/03/04 04:30:34;;;;;;;31.90;14.13;;;-2.20;81.70;;;;;;5074251;28;20043;-74
2022/03/04 04:33:00;;;;;;;31.40;14.40;;;-2.20;81.80;;;;;;5083167;27;20067;-74
2022/03/04 04:35:26;;;;;;;31.47;14.47;;;-2.20;81.80;;;;;;5073965;28;20028;-74
2022/03/04 04:37:52;;;;;;;32.97;14.90;;;-2.20;81.80;;;;;;5108013;27;20039;-74
2022/03/04 04:40:18;;;;;;;29.63;14.63;;;-2.30;81.80;;;;;;5075315;28;20491;-74
2022/03/04 04:42:44;;;;;;;30.05;14.82;;;-2.30;81.70;;;;;;5125122;27;20126;-74
2022/03/04 04:45:10;;;;;;;34.00;15.73;;;-2.30;81.80;;;;;;5105864;28;20071;-74
2022/03/04 04:47:36;;;;;;;33.00;15.43;;;-2.30;82.00;;;;;;5107141;28;20093;-73
2022/03/04 04:50:02;;;;;;;36.43;15.87;;;-2.30;82.20;;;;;;5075623;28;20047;-74
2022/03/04 04:52:28;;;;;;;37.53;15.95;;;-2.30;82.10;;;;;;5110131;27;20041;-74
2022/03/04 04:54:54;;;;;;;35.67;16.50;;;-2.30;82.20;;;;;;5074896;28;20035;-74
2022/03/04 04:57:20;;;;;;;39.33;17.43;;;-2.30;82.10;;;;;;5072960;28;20043;-74
2022/03/04 04:59:46;;;;;;;36.67;16.77;;;-2.30;82.20;;;;;;5098587;28;20070;-74
2022/03/04 05:02:12;;;;;;;34.93;14.97;;;-2.40;82.10;;;;;;5091586;27;20036;-74
2022/03/04 05:04:37;;;;;;;34.67;16.23;;;-2.40;82.20;;;;;;5084927;28;20453;-74
2022/03/04 05:07:03;;;;;;;35.37;16.63;;;-2.40;82.40;;;;;;5089020;28;20044;-74
2022/03/04 05:09:29;;;;;;;34.90;16.30;;;-2.40;82.50;;;;;;5061858;28;20039;-74
2022/03/04 05:11:55;;;;;;;37.87;17.30;;;-2.40;82.70;;;;;;5106932;28;20123;-74
2022/03/04 05:14:20;;;;;;;34.03;16.07;;;-2.40;82.60;;;;;;5080291;28;20061;-74
2022/03/04 05:16:46;;;;;;;33.03;15.40;;;-2.40;82.70;;;;;;5106011;28;20074;-73
2022/03/04 05:19:12;;;;;;;37.80;16.03;;;-2.40;82.60;;;;;;5077037;28;20054;-73
2022/03/04 05:21:37;;;;;;;36.77;17.03;;;-2.50;82.40;;;;;;5106377;28;20416;-74
2022/03/04 05:24:06;;;;;;;34.40;15.57;;;-2.50;82.30;;;;;;5088955;28;20032;-73
2022/03/04 05:26:37;;;;;;;31.25;15.15;;;-2.50;82.40;;;;;;5105915;28;20151;-74
2022/03/04 05:29:05;;;;;;;34.53;15.60;;;-2.50;82.40;;;;;;5105949;28;20087;-74
2022/03/04 05:31:31;;;;;;;41.67;17.45;;;-2.60;82.40;;;;;;5123354;27;20122;-74
2022/03/04 05:33:57;;;;;;;35.78;15.65;;;-2.60;82.40;;;;;;5088698;28;20403;-74
2022/03/04 05:36:23;;;;;;;40.08;17.27;;;-2.60;82.40;;;;;;5096319;28;20040;-74
2022/03/04 05:38:50;;;;;;;38.33;16.67;;;-2.70;82.40;;;;;;5106046;28;20043;-74
2022/03/04 05:41:17;;;;;;;39.30;16.00;;;-2.70;82.50;;;;;;5090471;28;20035;-74
2022/03/04 05:43:44;;;;;;;38.50;17.35;;;-2.80;82.60;;;;;;5075834;28;20056;-74
2022/03/04 05:46:11;;;;;;;37.58;16.77;;;-2.80;82.50;;;;;;5110305;27;20403;-74
2022/03/04 05:48:37;;;;;;;35.97;16.27;;;-2.80;82.50;;;;;;5090400;28;20455;-74
2022/03/04 05:51:03;;;;;;;38.33;16.77;;;-2.90;82.60;;;;;;5069193;28;20073;-74
2022/03/04 05:53:30;;;;;;;36.58;15.68;;;-2.90;82.70;;;;;;5123333;27;20407;-74
2022/03/04 05:55:56;;;;;;;35.63;15.25;;;-2.90;82.70;;;;;;5122620;27;20043;-74
2022/03/04 05:58:22;;;;;;;33.37;15.80;;;-3.00;82.70;;;;;;5106264;28;20043;-74
2022/03/04 06:00:47;;;;;;;36.03;15.80;;;-3.00;82.60;;;;;;5069205;28;20040;-74
2022/03/04 06:03:13;;;;;;;34.60;16.30;;;-3.00;82.60;;;;;;5080017;28;20404;-74
2022/03/04 06:05:39;;;;;;;36.50;16.55;;;-3.10;82.70;;;;;;5081957;28;20044;-74
2022/03/04 06:08:05;;;;;;;39.20;15.70;;;-3.10;82.70;;;;;;5108442;27;20079;-74
2022/03/04 06:10:30;;;;;;;37.13;15.87;;;-3.10;82.80;;;;;;5104871;28;20043;-74
2022/03/04 06:12:56;;;;;;;36.10;16.07;;;-3.10;82.90;;;;;;5122952;27;20147;-74
2022/03/04 06:15:22;;;;;;;35.70;18.10;;;-3.00;83.20;;;;;;5090016;28;20039;-74
2022/03/04 06:17:49;;;;;;;37.40;17.37;;;-3.00;83.00;;;;;;5071877;28;20035;-74
2022/03/04 06:20:16;;;;;;;42.20;17.80;;;-3.00;83.10;;;;;;5072368;28;20031;-74
2022/03/04 06:22:42;;;;;;;40.00;17.30;;;-2.90;83.00;;;;;;5078114;28;20400;-74
2022/03/04 06:25:09;;;;;;;40.10;16.88;;;-2.90;82.90;;;;;;5071365;28;20392;-74
2022/03/04 06:27:34;;;;;;;39.38;17.80;;;-2.90;82.80;;;;;;5057477;28;20043;-74
2022/03/04 06:30:00;;;;;;;43.27;18.13;;;-2.90;83.00;;;;;;5075223;28;20062;-74
2022/03/04 06:32:26;;;;;;;35.97;16.50;;;-2.90;83.30;;;;;;5073231;28;20040;-74
2022/03/04 06:34:51;;;;;;;41.47;17.87;;;-2.90;83.20;;;;;;5087661;28;20067;-74
2022/03/04 06:37:17;;;;;;;39.57;17.60;;;-2.90;83.30;;;;;;5072015;28;20118;-74
2022/03/04 06:39:43;;;;;;;38.97;18.23;;;-2.90;83.30;;;;;;5080518;28;20535;-73
2022/03/04 06:42:09;;;;;;;39.33;17.33;;;-2.80;83.20;;;;;;5065756;28;20051;-73
2022/03/04 06:44:34;;;;;;;40.43;17.27;;;-2.80;83.10;;;;;;5099487;27;20039;-73
2022/03/04 06:47:00;;;;;;;39.07;17.60;;;-2.80;83.10;;;;;;5082883;28;20350;-73
2022/03/04 06:49:26;;;;;;;47.73;19.17;;;-2.70;83.00;;;;;;5073648;28;20047;-73
2022/03/04 06:51:52;;;;;;;41.00;18.40;;;-2.60;83.00;;;;;;5085902;28;20126;-73
2022/03/04 06:54:17;;;;;;;49.90;18.60;;;-2.60;83.00;;;;;;5066067;28;20031;-74
2022/03/04 06:56:43;;;;;;;51.60;20.67;;;-2.50;83.10;;;;;;5096166;28;20441;-74
2022/03/04 06:59:09;;;;;;;48.03;19.03;;;-2.50;83.10;;;;;;5076632;28;20040;-73
2022/03/04 07:01:34;;;;;;;48.27;20.40;;;-2.50;83.10;;;;;;5088279;28;20074;-73
2022/03/04 07:04:00;;;;;;;48.97;20.50;;;-2.40;83.20;;;;;;5088244;28;20104;-73
2022/03/04 07:06:26;;;;;;;46.87;19.53;;;-2.40;83.40;;;;;;5092428;28;20163;-73
2022/03/04 07:08:52;;;;;;;49.57;21.00;;;-2.40;83.50;;;;;;5074668;28;20142;-73
2022/03/04 07:11:17;;;;;;;43.97;18.90;;;-2.30;83.50;;;;;;5086697;28;20150;-73
2022/03/04 07:13:43;;;;;;;46.47;19.67;;;-2.20;83.60;;;;;;5072649;28;20043;-73
2022/03/04 07:16:10;;;;;;;53.33;20.83;;;-2.20;83.60;;;;;;5097883;28;20049;-74
2022/03/04 07:18:36;;;;;;;45.00;20.02;;;-2.10;83.40;;;;;;5106089;28;20058;-74
2022/03/04 07:21:02;;;;;;;45.73;19.30;;;-2.10;83.40;;;;;;5090500;28;20484;-74
2022/03/04 07:23:28;;;;;;;51.55;20.42;;;-2.00;83.20;;;;;;5074507;28;20047;-74
2022/03/04 07:25:53;;;;;;;47.23;20.53;;;-2.00;83.20;;;;;;5072630;28;20465;-74
2022/03/04 07:28:19;;;;;;;48.73;19.80;;;-2.00;83.30;;;;;;5104164;28;20036;-74
2022/03/04 07:30:45;;;;;;;47.83;19.77;;;-1.90;83.20;;;;;;5085961;28;20048;-74
2022/03/04 07:33:11;;;;;;;50.47;20.40;;;-1.90;83.30;;;;;;5057561;28;20048;-73
2022/03/04 07:35:44;;;;;;;47.97;20.57;;;-1.80;83.20;;;;;;5088747;28;20043;-74
2022/03/04 07:38:12;;;;;;;45.97;20.75;;;-1.70;83.30;;;;;;5090278;28;20070;-74
2022/03/04 07:40:38;;;;;;;47.60;20.40;;;-1.60;83.20;;;;;;5074578;28;20051;-74
2022/03/04 07:43:04;;;;;;;51.80;21.50;;;-1.50;83.20;;;;;;5086536;28;20035;-74
2022/03/04 07:45:29;;;;;;;48.77;20.43;;;-1.50;82.80;;;;;;5053746;28;20389;-74
2022/03/04 07:47:55;;;;;;;53.30;20.53;;;-1.50;82.80;;;;;;5108015;28;20816;-74
2022/03/04 07:50:21;;;;;;;48.47;22.37;;;-1.50;82.80;;;;;;5061993;28;20044;-74
2022/03/04 07:52:47;;;;;;;50.70;21.43;;;-1.50;82.70;;;;;;5080663;28;20040;-74
2022/03/04 07:55:15;;;;;;;51.63;21.77;;;-1.50;82.80;;;;;;5094780;28;20066;-74
2022/03/04 07:57:42;;;;;;;46.97;20.52;;;-1.40;83.00;;;;;;5108994;28;20082;-74
2022/03/04 08:00:10;;;;;;;49.05;21.38;;;-1.40;83.00;;;;;;5105517;28;20293;-74
2022/03/04 08:02:40;;;;;;;46.67;21.80;;;-1.30;82.90;;;;;;5083375;28;20126;-74
2022/03/04 08:05:08;;;;;;;48.33;22.08;;;-1.20;82.90;;;;;;5074616;28;20053;-74
2022/03/04 08:07:37;;;;;;;44.42;20.95;;;-1.20;82.60;;;;;;5092280;28;20325;-74
2022/03/04 08:10:05;;;;;;;46.80;21.20;;;-1.20;82.50;;;;;;5087305;28;20320;-74
2022/03/04 08:12:31;;;;;;;49.72;21.75;;;-1.20;82.50;;;;;;5073218;28;20077;-75
2022/03/04 08:14:57;;;;;;;51.50;21.40;;;-1.20;82.60;;;;;;5088559;28;20567;-74
2022/03/04 08:17:22;;;;;;;51.87;21.10;;;-1.20;82.50;;;;;;5089153;28;20062;-74
2022/03/04 08:19:48;;;;;;;52.13;22.60;;;-1.20;82.50;;;;;;5104550;28;20036;-74
2022/03/04 08:22:14;;;;;;;46.57;22.00;;;-1.10;82.30;;;;;;5067637;28;20092;-74
2022/03/04 08:24:39;;;;;;;44.23;20.93;;;-1.10;82.40;;;;;;5106879;27;20047;-74
2022/03/04 08:27:05;;;;;;;42.13;20.40;;;-1.10;82.40;;;;;;5087182;28;20123;-74
2022/03/04 08:29:31;;;;;;;46.27;21.13;;;-1.00;82.40;;;;;;5076541;28;20035;-74
2022/03/04 08:31:56;;;;;;;42.10;20.87;;;-1.00;82.30;;;;;;5086894;27;20038;-74
2022/03/04 08:34:22;;;;;;;41.00;20.63;;;-0.90;82.30;;;;;;5113665;27;20042;-74
2022/03/04 08:36:49;;;;;;;44.83;20.83;;;-0.90;82.30;;;;;;5088991;28;20047;-74
2022/03/04 08:39:16;;;;;;;50.75;21.25;;;-0.80;82.50;;;;;;5084188;27;20424;-74
2022/03/04 08:41:42;;;;;;;45.75;20.67;;;-0.80;82.10;;;;;;5069461;28;20043;-74
2022/03/04 08:44:08;;;;;;;44.20;20.83;;;-0.70;82.10;;;;;;5070677;28;20040;-74
2022/03/04 08:46:35;;;;;;;46.70;19.87;;;-0.70;82.20;;;;;;5080988;28;20039;-75
2022/03/04 08:49:02;;;;;;;46.20;21.67;;;-0.70;81.90;;;;;;5087027;28;20051;-75
2022/03/04 08:51:28;;;;;;;43.03;21.58;;;-0.60;81.90;;;;;;5060035;28;20054;-75
2022/03/04 08:53:55;;;;;;;52.30;22.77;;;-0.50;81.90;;;;;;5087592;28;20039;-75
2022/03/04 08:56:21;;;;;;;46.17;22.40;;;-0.40;82.00;;;;;;5062650;27;20555;-75
2022/03/04 08:58:47;;;;;;;45.55;22.00;;;-0.40;81.90;;;;;;5069349;28;20047;-75
2022/03/04 09:01:13;;;;;;;42.40;21.57;;;-0.30;81.90;;;;;;5089372;27;20043;-75
2022/03/04 09:03:39;;;;;;;46.60;22.45;;;-0.20;81.80;;;;;;5126330;27;20301;-76
2022/03/04 09:06:05;;;;;;;46.00;21.20;;;-0.10;81.50;;;;;;5094203;27;20065;-75
2022/03/04 09:08:31;;;;;;;45.75;22.10;;;-0.10;81.50;;;;;;5126305;27;20064;-75
2022/03/04 09:10:57;;;;;;;44.87;22.17;;;0.00;81.20;;;;;;5085088;28;20468;-75
2022/03/04 09:13:24;;;;;;;40.92;21.75;;;0.00;81.00;;;;;;5093568;28;20363;-75
2022/03/04 09:15:50;;;;;;;41.80;21.75;;;0.10;81.00;;;;;;5086319;28;20035;-75
2022/03/04 09:18:16;;;;;;;44.47;22.43;;;0.10;80.80;;;;;;5086517;28;20051;-75
2022/03/04 09:20:41;;;;;;;38.70;20.40;;;0.20;80.80;;;;;;5086199;28;20043;-75
2022/03/04 09:23:08;;;;;;;40.43;21.17;;;0.30;80.90;;;;;;5094335;27;20050;-75
2022/03/04 09:25:34;;;;;;;41.85;20.23;;;0.40;80.30;;;;;;5082636;28;20063;-75
2022/03/04 09:28:02;;;;;;;44.53;21.77;;;0.40;79.80;;;;;;5098795;28;20100;-75
2022/03/04 09:30:28;;;;;;;42.53;22.10;;;0.40;79.90;;;;;;5093217;28;20050;-75
2022/03/04 09:32:53;;;;;;;40.17;21.60;;;0.50;80.00;;;;;;5093200;28;20039;-75
2022/03/04 09:35:19;;;;;;;41.00;21.13;;;0.60;80.30;;;;;;5084445;27;20091;-75
2022/03/04 09:37:45;;;;;;;43.07;21.63;;;0.70;79.90;;;;;;5107138;28;20044;-75
2022/03/04 09:40:12;;;;;;;41.60;21.30;;;0.80;79.80;;;;;;5073889;28;20391;-75
2022/03/04 09:42:38;;;;;;;37.53;20.00;;;0.80;79.10;;;;;;5089808;28;20040;-75
2022/03/04 09:45:04;;;;;;;39.50;20.40;;;0.90;79.40;;;;;;5084473;28;20088;-75
2022/03/04 09:47:31;;;;;;;38.63;20.80;;;0.90;79.10;;;;;;5090271;27;20071;-75
2022/03/04 09:49:58;;;;;;;41.97;21.70;;;0.90;78.70;;;;;;5098649;28;20172;-75
2022/03/04 09:52:24;;;;;;;39.17;21.25;;;0.90;78.60;;;;;;5065628;27;20099;-75
2022/03/04 09:54:52;;;;;;;45.00;23.08;;;0.90;78.70;;;;;;5105377;28;20045;-75
2022/03/04 09:57:19;;;;;;;41.42;22.20;;;1.00;78.80;;;;;;5061233;28;20039;-75
2022/03/04 09:59:45;;;;;;;36.45;20.58;;;1.10;78.90;;;;;;5081741;28;20403;-75
2022/03/04 10:02:12;;;;;;;43.15;21.65;;;1.20;79.10;;;;;;5108989;28;20431;-75
2022/03/04 10:04:38;;;;;;;40.70;22.33;;;1.30;78.60;;;;;;5110083;27;20054;-75
2022/03/04 10:07:14;;;;;;;37.85;20.73;;;1.40;78.90;;;;;;5061069;28;20068;-75
2022/03/04 10:09:45;;;;;;;39.78;21.23;;;1.50;78.40;;;;;;5094232;28;20513;-75
2022/03/04 10:12:14;;;;;;;37.80;20.77;;;1.70;78.60;;;;;;5127639;27;20074;-75
2022/03/04 10:15:04;;;;;;;38.10;21.50;;;1.90;78.60;;;;;;5077623;28;20074;-75
2022/03/04 10:17:32;;;;;;;36.97;21.88;;;2.00;77.60;;;;;;5083919;28;20039;-76
2022/03/04 10:20:00;;;;;;;38.58;21.90;;;2.00;76.40;;;;;;5094178;27;20048;-76
2022/03/04 10:22:42;;;;;;;37.05;21.10;;;2.00;76.10;;;;;;5081253;28;20031;-76
2022/03/04 10:25:25;;;;;;;36.10;21.30;;;2.10;76.90;;;;;;5136470;27;20043;-76
2022/03/04 10:27:52;;;;;;;37.97;21.83;;;2.20;77.50;;;;;;5101326;28;20055;-75
2022/03/04 10:30:29;;;;;;;40.90;21.83;;;2.40;77.30;;;;;;5099257;28;20043;-75
2022/03/04 10:33:09;;;;;;;37.85;21.50;;;2.70;77.40;;;;;;5130643;27;20066;-75
2022/03/04 10:35:36;;;;;;;36.28;21.33;;;3.00;77.00;;;;;;5079041;28;20111;-75
2022/03/04 10:38:04;;;;;;;36.85;21.65;;;3.20;76.30;;;;;;5085900;28;20066;-75
2022/03/04 10:40:36;;;;;;;36.60;20.48;;;3.20;75.60;;;;;;5083691;28;20044;-75
2022/03/04 10:43:05;;;;;;;33.42;19.88;;;3.30;75.50;;;;;;5085975;28;20047;-75
2022/03/04 10:45:40;;;;;;;36.00;20.98;;;3.20;75.10;;;;;;5116353;28;20503;-75
2022/03/04 10:48:12;;;;;;;34.55;20.90;;;3.10;75.20;;;;;;5134345;27;20054;-75
2022/03/04 10:50:39;;;;;;;35.33;20.30;;;3.00;75.10;;;;;;5079095;28;20060;-75
2022/03/04 10:53:16;;;;;;;33.53;18.88;;;3.20;75.50;;;;;;5080896;28;20047;-75
2022/03/04 10:56:07;;;;;;;30.23;18.52;;;3.10;74.60;;;;;;5077495;28;20040;-75
2022/03/04 10:58:35;;;;;;;32.88;19.55;;;3.10;75.20;;;;;;5074513;28;20116;-75
2022/03/04 11:01:08;;;;;;;33.05;19.27;;;3.10;74.70;;;;;;5089998;28;20040;-75
2022/03/04 11:03:34;;;;;;;31.38;17.38;;;3.20;74.90;;;;;;5076990;27;20096;-75
2022/03/04 11:06:08;;;;;;;31.63;18.30;;;3.20;75.10;;;;;;5065481;27;20483;-75
2022/03/04 11:08:34;;;;;;;31.70;18.00;;;3.30;74.30;;;;;;5122230;27;20494;-75
2022/03/04 11:11:01;;;;;;;29.63;17.42;;;3.20;74.50;;;;;;5067319;28;20044;-75
2022/03/04 11:13:29;;;;;;;30.77;17.05;;;3.40;74.20;;;;;;5112999;28;20412;-75
2022/03/04 11:15:56;;;;;;;32.95;17.67;;;3.50;74.20;;;;;;5089054;28;20510;-74
2022/03/04 11:18:22;;;;;;;32.17;17.80;;;3.60;74.10;;;;;;5077615;28;20655;-74
2022/03/04 11:20:56;;;;;;;25.35;15.77;;;3.70;73.60;;;;;;5085058;28;20079;-75
2022/03/04 11:23:27;;;;;;;28.83;16.42;;;3.90;72.40;;;;;;5091029;27;20043;-75
2022/03/04 11:25:59;;;;;;;29.73;16.20;;;3.90;72.50;;;;;;5097310;27;20046;-75
2022/03/04 11:28:34;;;;;;;26.80;15.50;;;4.00;72.50;;;;;;5132675;27;20070;-75
2022/03/04 11:31:06;;;;;;;24.70;14.60;;;4.10;72.00;;;;;;5093466;28;20071;-75
2022/03/04 11:33:36;;;;;;;23.45;14.18;;;4.20;71.90;;;;;;5079284;28;20455;-75
2022/03/04 11:36:06;;;;;;;24.23;14.25;;;4.30;71.80;;;;;;5108003;28;20776;-75
2022/03/04 11:38:47;;;;;;;24.38;13.98;;;4.40;71.10;;;;;;5089632;28;20452;-75
2022/03/04 11:41:32;;;;;;;27.42;13.55;;;4.60;70.80;;;;;;5090503;28;20046;-75
2022/03/04 11:44:09;;;;;;;23.05;14.38;;;4.70;70.20;;;;;;5084297;28;20492;-75
2022/03/04 11:46:46;;;;;;;23.05;14.25;;;4.90;70.00;;;;;;5128187;27;20085;-75
2022/03/04 11:49:44;;;;;;;27.85;15.10;;;5.00;69.90;;;;;;5098972;28;20121;-75
2022/03/04 11:52:12;;;;;;;23.48;14.13;;;5.10;69.50;;;;;;5084649;28;20415;-75
2022/03/04 11:54:40;;;;;;;24.55;14.77;;;5.20;68.60;;;;;;5092265;28;20040;-75
2022/03/04 11:57:29;;;;;;;25.05;13.82;;;5.20;67.70;;;;;;5075392;27;20625;-75
2022/03/04 11:59:58;;;;;;;21.35;13.10;;;5.20;68.20;;;;;;5091923;28;20096;-75
2022/03/04 12:02:36;;;;;;;25.38;14.60;;;5.30;67.60;;;;;;5096541;28;20630;-75
2022/03/04 12:05:14;;;;;;;19.52;12.48;;;5.40;68.00;;;;;;5081544;28;20594;-75
2022/03/04 12:08:07;;;;;;;21.15;13.05;;;5.50;65.50;;;;;;5092547;27;20053;-75
2022/03/04 12:10:45;;;;;;;22.83;13.75;;;5.60;66.40;;;;;;5074973;28;20046;-75
2022/03/04 12:13:13;;;;;;;21.52;12.25;;;5.70;66.70;;;;;;5092510;28;20202;-75
2022/03/04 12:15:42;;;;;;;24.42;13.48;;;5.80;66.30;;;;;;5103992;28;20040;-75
2022/03/04 12:18:14;;;;;;;22.30;13.75;;;5.90;65.70;;;;;;5126271;27;20048;-75
2022/03/04 12:20:39;;;;;;;22.88;13.60;;;6.10;65.50;;;;;;5127193;27;20051;-75
2022/03/04 12:23:11;;;;;;;20.30;13.33;;;6.10;65.50;;;;;;5085712;28;20089;-75
2022/03/04 12:25:55;;;;;;;20.50;13.05;;;6.20;65.80;;;;;;5107008;28;20047;-75
2022/03/04 12:28:26;;;;;;;22.25;12.90;;;6.20;65.30;;;;;;5091624;28;20058;-75
2022/03/04 12:31:01;;;;;;;19.48;12.85;;;6.30;65.10;;;;;;5125324;27;20044;-74
2022/03/04 12:33:27;;;;;;;21.38;13.27;;;6.40;65.20;;;;;;5109055;28;20040;-75